sensor_id;sensor_type;location;lat;lon;timestamp;pressure;altitude;pressure_sealevel;temperature;humidity
13209;BME280;6669;42.678;23.332;2023-02-16T00:00:44;95773.47;;;0.22;100.00
13209;BME280;6669;42.678;23.332;2023-02-16T00:03:16;95777.19;;;0.32;100.00
13209;BME280;6669;42.678;23.332;2023-02-16T00:05:44;95768.09;;;0.26;100.00
13209;BME280;6669;42.678;23.332;2023-02-16T00:08:14;95778.31;;;0.26;100.00
13209;BME280;6669;42.678;23.332;2023-02-16T00:10:42;95779.66;;;0.34;100.00
13209;BME280;6669;42.678;23.332;2023-02-16T00:13:31;95778.31;;;0.26;100.00
13209;BME280;6669;42.678;23.332;2023-02-16T00:16:13;95770.91;;;0.22;100.00
13209;BME280;6669;42.678;23.332;2023-02-16T00:18:41;95761.97;;;0.13;100.00
13209;BME280;6669;42.678;23.332;2023-02-16T00:21:09;95771.06;;;0.19;100.00
13209;BME280;6669;42.678;23.332;2023-02-16T00:23:39;95770.47;;;0.13;100.00
13209;BME280;6669;42.678;23.332;2023-02-16T00:26:12;95774.22;;;0.06;100.00
13209;BME280;6669;42.678;23.332;2023-02-16T00:28:42;95771.53;;;0.09;100.00
13209;BME280;6669;42.678;23.332;2023-02-16T00:31:34;95777.91;;;0.18;100.00
13209;BME280;6669;42.678;23.332;2023-02-16T00:34:24;95773.84;;;0.14;100.00
13209;BME280;6669;42.678;23.332;2023-02-16T00:36:52;95760.94;;;-0.01;100.00
13209;BME280;6669;42.678;23.332;2023-02-16T00:39:23;95770.22;;;-0.15;100.00
13209;BME280;6669;42.678;23.332;2023-02-16T00:41:52;95774.44;;;-0.14;100.00
13209;BME280;6669;42.678;23.332;2023-02-16T00:44:24;95767.31;;;-0.25;100.00
13209;BME280;6669;42.678;23.332;2023-02-16T00:46:54;95753.06;;;-0.47;100.00
13209;BME280;6669;42.678;23.332;2023-02-16T00:49:22;95767.63;;;-0.31;100.00
13209;BME280;6669;42.678;23.332;2023-02-16T00:51:50;95771.47;;;-0.40;100.00
13209;BME280;6669;42.678;23.332;2023-02-16T00:54:18;95774.69;;;-0.37;100.00
13209;BME280;6669;42.678;23.332;2023-02-16T00:56:48;95768.44;;;-0.31;100.00
13209;BME280;6669;42.678;23.332;2023-02-16T00:59:19;95764.09;;;-0.29;100.00
13209;BME280;6669;42.678;23.332;2023-02-16T01:01:48;95761.63;;;-0.30;100.00
13209;BME280;6669;42.678;23.332;2023-02-16T01:04:19;95764.59;;;-0.22;100.00
13209;BME280;6669;42.678;23.332;2023-02-16T01:06:48;95770.22;;;-0.15;100.00
13209;BME280;6669;42.678;23.332;2023-02-16T01:09:33;95769.31;;;-0.14;100.00
13209;BME280;6669;42.678;23.332;2023-02-16T01:12:20;95762.25;;;-0.09;100.00
13209;BME280;6669;42.678;23.332;2023-02-16T01:14:51;95764.88;;;-0.11;100.00
13209;BME280;6669;42.678;23.332;2023-02-16T01:17:19;95756.31;;;-0.10;100.00
13209;BME280;6669;42.678;23.332;2023-02-16T01:19:47;95756.06;;;-0.05;100.00
13209;BME280;6669;42.678;23.332;2023-02-16T01:22:15;95744.63;;;-0.14;100.00
13209;BME280;6669;42.678;23.332;2023-02-16T01:24:43;95746.38;;;0.02;100.00
13209;BME280;6669;42.678;23.332;2023-02-16T01:27:12;95745.72;;;-0.20;100.00
13209;BME280;6669;42.678;23.332;2023-02-16T01:29:41;95734.41;;;-0.31;100.00
13209;BME280;6669;42.678;23.332;2023-02-16T01:32:10;95742.75;;;-0.28;100.00
13209;BME280;6669;42.678;23.332;2023-02-16T01:34:38;95732.69;;;-0.31;100.00
13209;BME280;6669;42.678;23.332;2023-02-16T01:37:12;95733.22;;;-0.42;100.00
13209;BME280;6669;42.678;23.332;2023-02-16T01:39:41;95730.81;;;-0.45;100.00
13209;BME280;6669;42.678;23.332;2023-02-16T01:42:15;95739.72;;;-0.52;100.00
13209;BME280;6669;42.678;23.332;2023-02-16T01:44:50;95732.19;;;-0.55;100.00
13209;BME280;6669;42.678;23.332;2023-02-16T01:47:28;95729.03;;;-0.60;100.00
13209;BME280;6669;42.678;23.332;2023-02-16T01:49:58;95729.94;;;-0.61;100.00
13209;BME280;6669;42.678;23.332;2023-02-16T01:52:31;95720.47;;;-0.59;100.00
13209;BME280;6669;42.678;23.332;2023-02-16T01:55:04;95718.94;;;-0.46;100.00
13209;BME280;6669;42.678;23.332;2023-02-16T01:57:40;95720.47;;;-0.42;100.00
13209;BME280;6669;42.678;23.332;2023-02-16T02:00:15;95718.81;;;-0.43;100.00
13209;BME280;6669;42.678;23.332;2023-02-16T02:02:46;95713.97;;;-0.31;100.00
13209;BME280;6669;42.678;23.332;2023-02-16T02:05:20;95718.59;;;-0.38;100.00
13209;BME280;6669;42.678;23.332;2023-02-16T02:08:08;95724.28;;;-0.33;100.00
13209;BME280;6669;42.678;23.332;2023-02-16T02:10:45;95725.25;;;-0.36;100.00
13209;BME280;6669;42.678;23.332;2023-02-16T02:13:21;95721.34;;;-0.43;100.00
13209;BME280;6669;42.678;23.332;2023-02-16T02:15:55;95730.50;;;-0.39;100.00
13209;BME280;6669;42.678;23.332;2023-02-16T02:18:25;95722.06;;;-0.57;100.00
13209;BME280;6669;42.678;23.332;2023-02-16T02:21:08;95727.75;;;-0.69;100.00
13209;BME280;6669;42.678;23.332;2023-02-16T02:24:17;95730.16;;;-0.84;100.00
13209;BME280;6669;42.678;23.332;2023-02-16T02:27:10;95724.97;;;-1.00;100.00
13209;BME280;6669;42.678;23.332;2023-02-16T02:30:00;95715.91;;;-1.05;100.00
13209;BME280;6669;42.678;23.332;2023-02-16T02:35:34;95712.50;;;-1.23;100.00
13209;BME280;6669;42.678;23.332;2023-02-16T02:38:10;95707.91;;;-1.34;100.00
13209;BME280;6669;42.678;23.332;2023-02-16T02:40:46;95705.13;;;-1.29;100.00
13209;BME280;6669;42.678;23.332;2023-02-16T02:43:24;95718.09;;;-1.34;100.00
13209;BME280;6669;42.678;23.332;2023-02-16T02:45:59;95705.88;;;-1.27;100.00
13209;BME280;6669;42.678;23.332;2023-02-16T02:48:30;95714.56;;;-1.32;100.00
13209;BME280;6669;42.678;23.332;2023-02-16T02:51:00;95711.94;;;-1.30;100.00
13209;BME280;6669;42.678;23.332;2023-02-16T02:53:58;95705.13;;;-1.29;100.00
13209;BME280;6669;42.678;23.332;2023-02-16T02:56:44;95717.59;;;-1.23;100.00
13209;BME280;6669;42.678;23.332;2023-02-16T02:59:33;95711.81;;;-1.27;100.00
13209;BME280;6669;42.678;23.332;2023-02-16T03:02:35;95716.13;;;-1.46;100.00
13209;BME280;6669;42.678;23.332;2023-02-16T03:05:07;95721.44;;;-1.51;100.00
13209;BME280;6669;42.678;23.332;2023-02-16T03:07:36;95721.53;;;-1.53;100.00
13209;BME280;6669;42.678;23.332;2023-02-16T03:10:16;95718.22;;;-1.55;100.00
13209;BME280;6669;42.678;23.332;2023-02-16T03:13:05;95710.22;;;-1.66;100.00
13209;BME280;6669;42.678;23.332;2023-02-16T03:15:36;95712.56;;;-1.61;100.00
13209;BME280;6669;42.678;23.332;2023-02-16T03:18:06;95725.03;;;-1.55;100.00
13209;BME280;6669;42.678;23.332;2023-02-16T03:20:54;95718.41;;;-1.59;100.00
13209;BME280;6669;42.678;23.332;2023-02-16T03:23:41;95722.53;;;-1.57;100.00
13209;BME280;6669;42.678;23.332;2023-02-16T03:26:29;95716.34;;;-1.51;100.00
13209;BME280;6669;42.678;23.332;2023-02-16T03:29:16;95718.06;;;-1.52;100.00
13209;BME280;6669;42.678;23.332;2023-02-16T03:31:54;95711.69;;;-1.43;100.00
13209;BME280;6669;42.678;23.332;2023-02-16T03:34:24;95712.25;;;-1.36;100.00
13209;BME280;6669;42.678;23.332;2023-02-16T03:36:55;95711.13;;;-1.30;100.00
13209;BME280;6669;42.678;23.332;2023-02-16T03:39:27;95704.75;;;-1.39;100.00
13209;BME280;6669;42.678;23.332;2023-02-16T03:41:56;95712.47;;;-1.41;100.00
13209;BME280;6669;42.678;23.332;2023-02-16T03:44:26;95703.44;;;-1.48;100.00
13209;BME280;6669;42.678;23.332;2023-02-16T03:46:56;95708.97;;;-1.57;100.00
13209;BME280;6669;42.678;23.332;2023-02-16T03:49:24;95714.06;;;-1.57;100.00
13209;BME280;6669;42.678;23.332;2023-02-16T03:51:52;95719.94;;;-1.55;100.00
13209;BME280;6669;42.678;23.332;2023-02-16T03:54:19;95714.91;;;-1.57;100.00
13209;BME280;6669;42.678;23.332;2023-02-16T03:56:47;95713.31;;;-1.59;100.00
13209;BME280;6669;42.678;23.332;2023-02-16T03:59:15;95712.63;;;-1.63;100.00
13209;BME280;6669;42.678;23.332;2023-02-16T04:01:45;95716.44;;;-1.72;100.00
13209;BME280;6669;42.678;23.332;2023-02-16T04:04:15;95714.28;;;-1.81;100.00
13209;BME280;6669;42.678;23.332;2023-02-16T04:06:43;95715.34;;;-1.85;100.00
13209;BME280;6669;42.678;23.332;2023-02-16T04:09:10;95708.47;;;-1.83;100.00
13209;BME280;6669;42.678;23.332;2023-02-16T04:11:39;95700.38;;;-1.93;100.00
13209;BME280;6669;42.678;23.332;2023-02-16T04:14:24;95698.88;;;-1.97;100.00
13209;BME280;6669;42.678;23.332;2023-02-16T04:16:52;95698.25;;;-2.02;100.00
13209;BME280;6669;42.678;23.332;2023-02-16T04:19:22;95697.50;;;-2.04;100.00
13209;BME280;6669;42.678;23.332;2023-02-16T04:21:50;95693.44;;;-2.08;100.00
13209;BME280;6669;42.678;23.332;2023-02-16T04:24:19;95697.75;;;-2.10;100.00
13209;BME280;6669;42.678;23.332;2023-02-16T04:26:47;95696.44;;;-2.19;100.00
13209;BME280;6669;42.678;23.332;2023-02-16T04:29:15;95699.88;;;-2.20;100.00
13209;BME280;6669;42.678;23.332;2023-02-16T04:31:43;95695.81;;;-2.24;100.00
13209;BME280;6669;42.678;23.332;2023-02-16T04:34:11;95694.16;;;-2.25;100.00
13209;BME280;6669;42.678;23.332;2023-02-16T04:36:40;95693.34;;;-2.26;100.00
13209;BME280;6669;42.678;23.332;2023-02-16T04:39:08;95695.41;;;-2.34;100.00
13209;BME280;6669;42.678;23.332;2023-02-16T04:41:36;95699.75;;;-2.36;100.00
13209;BME280;6669;42.678;23.332;2023-02-16T04:44:04;95697.59;;;-2.45;100.00
13209;BME280;6669;42.678;23.332;2023-02-16T04:46:32;95710.13;;;-2.41;100.00
13209;BME280;6669;42.678;23.332;2023-02-16T04:49:00;95701.66;;;-2.41;100.00
13209;BME280;6669;42.678;23.332;2023-02-16T04:51:29;95704.22;;;-2.41;100.00
13209;BME280;6669;42.678;23.332;2023-02-16T04:53:58;95708.03;;;-2.52;100.00
13209;BME280;6669;42.678;23.332;2023-02-16T04:56:26;95704.66;;;-2.52;100.00
13209;BME280;6669;42.678;23.332;2023-02-16T04:58:54;95709.03;;;-2.56;100.00
13209;BME280;6669;42.678;23.332;2023-02-16T05:01:24;95711.41;;;-2.51;100.00
13209;BME280;6669;42.678;23.332;2023-02-16T05:03:52;95711.97;;;-2.65;100.00
13209;BME280;6669;42.678;23.332;2023-02-16T05:06:21;95715.09;;;-2.58;100.00
13209;BME280;6669;42.678;23.332;2023-02-16T05:08:50;95717.53;;;-2.55;100.00
13209;BME280;6669;42.678;23.332;2023-02-16T05:11:19;95717.84;;;-2.63;100.00
13209;BME280;6669;42.678;23.332;2023-02-16T05:14:04;95719.88;;;-2.51;100.00
13209;BME280;6669;42.678;23.332;2023-02-16T05:16:50;95723.16;;;-2.49;100.00
13209;BME280;6669;42.678;23.332;2023-02-16T05:19:18;95718.41;;;-2.56;100.00
13209;BME280;6669;42.678;23.332;2023-02-16T05:21:45;95722.09;;;-2.43;100.00
13209;BME280;6669;42.678;23.332;2023-02-16T05:24:13;95721.25;;;-2.43;100.00
13209;BME280;6669;42.678;23.332;2023-02-16T05:26:43;95730.38;;;-2.38;100.00
13209;BME280;6669;42.678;23.332;2023-02-16T05:29:10;95726.91;;;-2.37;100.00
13209;BME280;6669;42.678;23.332;2023-02-16T05:31:38;95731.09;;;-2.36;100.00
13209;BME280;6669;42.678;23.332;2023-02-16T05:34:06;95723.28;;;-2.31;100.00
13209;BME280;6669;42.678;23.332;2023-02-16T05:36:34;95727.28;;;-2.25;100.00
13209;BME280;6669;42.678;23.332;2023-02-16T05:39:03;95731.28;;;-2.20;100.00
13209;BME280;6669;42.678;23.332;2023-02-16T05:41:31;95736.94;;;-2.13;100.00
13209;BME280;6669;42.678;23.332;2023-02-16T05:44:02;95721.53;;;-2.10;100.00
13209;BME280;6669;42.678;23.332;2023-02-16T05:46:33;95729.91;;;-2.08;100.00
13209;BME280;6669;42.678;23.332;2023-02-16T05:49:03;95748.53;;;-2.06;100.00
13209;BME280;6669;42.678;23.332;2023-02-16T05:51:32;95734.19;;;-2.08;100.00
13209;BME280;6669;42.678;23.332;2023-02-16T05:54:00;95744.41;;;-1.89;100.00
13209;BME280;6669;42.678;23.332;2023-02-16T05:56:28;95740.66;;;-1.82;100.00
13209;BME280;6669;42.678;23.332;2023-02-16T05:58:57;95738.63;;;-1.93;100.00
13209;BME280;6669;42.678;23.332;2023-02-16T06:01:27;95737.22;;;-2.00;100.00
13209;BME280;6669;42.678;23.332;2023-02-16T06:03:55;95738.72;;;-1.96;100.00
13209;BME280;6669;42.678;23.332;2023-02-16T06:06:23;95752.13;;;-1.91;100.00
13209;BME280;6669;42.678;23.332;2023-02-16T06:08:51;95753.72;;;-1.88;100.00
13209;BME280;6669;42.678;23.332;2023-02-16T06:11:19;95760.59;;;-1.90;100.00
13209;BME280;6669;42.678;23.332;2023-02-16T06:14:07;95743.63;;;-1.91;100.00
13209;BME280;6669;42.678;23.332;2023-02-16T06:16:38;95750.31;;;-1.70;100.00
13209;BME280;6669;42.678;23.332;2023-02-16T06:19:07;95761.06;;;-1.63;100.00
13209;BME280;6669;42.678;23.332;2023-02-16T06:21:35;95762.25;;;-1.70;100.00
13209;BME280;6669;42.678;23.332;2023-02-16T06:24:04;95764.56;;;-1.66;100.00
13209;BME280;6669;42.678;23.332;2023-02-16T06:26:33;95747.78;;;-1.70;100.00
13209;BME280;6669;42.678;23.332;2023-02-16T06:29:01;95769.91;;;-1.51;100.00
13209;BME280;6669;42.678;23.332;2023-02-16T06:31:29;95772.91;;;-1.43;100.00
13209;BME280;6669;42.678;23.332;2023-02-16T06:34:02;95775.34;;;-1.40;100.00
13209;BME280;6669;42.678;23.332;2023-02-16T06:36:31;95785.38;;;-1.37;100.00
13209;BME280;6669;42.678;23.332;2023-02-16T06:38:59;95776.75;;;-1.34;100.00
13209;BME280;6669;42.678;23.332;2023-02-16T06:41:27;95781.06;;;-1.35;100.00
13209;BME280;6669;42.678;23.332;2023-02-16T06:44:00;95779.19;;;-1.31;100.00
13209;BME280;6669;42.678;23.332;2023-02-16T06:46:29;95785.88;;;-1.28;100.00
13209;BME280;6669;42.678;23.332;2023-02-16T06:48:57;95753.72;;;-1.50;100.00
13209;BME280;6669;42.678;23.332;2023-02-16T06:51:27;95787.59;;;-1.29;100.00
13209;BME280;6669;42.678;23.332;2023-02-16T06:53:56;95782.72;;;-1.16;100.00
13209;BME280;6669;42.678;23.332;2023-02-16T06:56:24;95785.28;;;-1.16;100.00
13209;BME280;6669;42.678;23.332;2023-02-16T06:58:52;95787.84;;;-1.16;100.00
13209;BME280;6669;42.678;23.332;2023-02-16T07:01:20;95784.88;;;-1.07;100.00
13209;BME280;6669;42.678;23.332;2023-02-16T07:03:52;95777.97;;;-1.05;100.00
13209;BME280;6669;42.678;23.332;2023-02-16T07:06:22;95782.50;;;-0.92;100.00
13209;BME280;6669;42.678;23.332;2023-02-16T07:08:52;95780.38;;;-0.84;100.00
13209;BME280;6669;42.678;23.332;2023-02-16T07:11:20;95784.19;;;-0.74;100.00
13209;BME280;6669;42.678;23.332;2023-02-16T07:13:48;95778.75;;;-0.68;100.00
13209;BME280;6669;42.678;23.332;2023-02-16T07:16:17;95779.50;;;-0.66;100.00
13209;BME280;6669;42.678;23.332;2023-02-16T07:18:45;95760.66;;;-0.63;100.00
13209;BME280;6669;42.678;23.332;2023-02-16T07:21:13;95753.47;;;-0.55;100.00
13209;BME280;6669;42.678;23.332;2023-02-16T07:23:41;95759.09;;;-0.48;100.00
13209;BME280;6669;42.678;23.332;2023-02-16T07:26:11;95762.34;;;-0.28;100.00
13209;BME280;6669;42.678;23.332;2023-02-16T07:28:38;95759.84;;;-0.12;100.00
13209;BME280;6669;42.678;23.332;2023-02-16T07:31:08;95730.56;;;-0.23;100.00
13209;BME280;6669;42.678;23.332;2023-02-16T07:33:37;95745.19;;;-0.09;100.00
13209;BME280;6669;42.678;23.332;2023-02-16T07:36:06;95755.53;;;0.06;100.00
13209;BME280;6669;42.678;23.332;2023-02-16T07:38:35;95755.22;;;0.12;100.00
13209;BME280;6669;42.678;23.332;2023-02-16T07:41:03;95733.78;;;0.14;100.00
13209;BME280;6669;42.678;23.332;2023-02-16T07:43:37;95758.22;;;0.36;100.00
13209;BME280;6669;42.678;23.332;2023-02-16T07:46:05;95757.56;;;0.48;100.00
13209;BME280;6669;42.678;23.332;2023-02-16T07:48:33;95761.75;;;0.65;100.00
13209;BME280;6669;42.678;23.332;2023-02-16T07:51:02;95763.50;;;0.65;100.00
13209;BME280;6669;42.678;23.332;2023-02-16T07:53:31;95759.53;;;0.75;100.00
13209;BME280;6669;42.678;23.332;2023-02-16T07:55:59;95759.84;;;0.85;100.00
13209;BME280;6669;42.678;23.332;2023-02-16T07:58:27;95754.66;;;0.87;100.00
13209;BME280;6669;42.678;23.332;2023-02-16T08:01:05;95763.63;;;0.94;100.00
13209;BME280;6669;42.678;23.332;2023-02-16T08:03:33;95764.13;;;1.01;100.00
13209;BME280;6669;42.678;23.332;2023-02-16T08:06:02;95767.28;;;1.06;100.00
13209;BME280;6669;42.678;23.332;2023-02-16T08:08:30;95773.53;;;1.16;100.00
13209;BME280;6669;42.678;23.332;2023-02-16T08:10:58;95771.91;;;1.29;100.00
13209;BME280;6669;42.678;23.332;2023-02-16T08:13:26;95773.81;;;1.26;100.00
13209;BME280;6669;42.678;23.332;2023-02-16T08:15:56;95764.22;;;1.29;100.00
13209;BME280;6669;42.678;23.332;2023-02-16T08:18:24;95766.63;;;1.33;100.00
13209;BME280;6669;42.678;23.332;2023-02-16T08:20:52;95777.72;;;1.47;100.00
13209;BME280;6669;42.678;23.332;2023-02-16T08:23:30;95779.72;;;1.42;100.00
13209;BME280;6669;42.678;23.332;2023-02-16T08:25:58;95774.72;;;1.55;100.00
13209;BME280;6669;42.678;23.332;2023-02-16T08:28:27;95788.88;;;1.77;100.00
13209;BME280;6669;42.678;23.332;2023-02-16T08:31:01;95761.03;;;1.71;100.00
13209;BME280;6669;42.678;23.332;2023-02-16T08:33:30;95757.47;;;1.73;100.00
13209;BME280;6669;42.678;23.332;2023-02-16T08:35:58;95784.13;;;1.85;100.00
13209;BME280;6669;42.678;23.332;2023-02-16T08:38:26;95783.94;;;1.88;100.00
13209;BME280;6669;42.678;23.332;2023-02-16T08:40:54;95789.91;;;2.03;100.00
13209;BME280;6669;42.678;23.332;2023-02-16T08:43:23;95782.66;;;2.10;100.00
13209;BME280;6669;42.678;23.332;2023-02-16T08:45:51;95783.69;;;2.22;100.00
13209;BME280;6669;42.678;23.332;2023-02-16T08:48:20;95779.09;;;2.41;100.00
13209;BME280;6669;42.678;23.332;2023-02-16T08:50:48;95774.81;;;2.42;100.00
13209;BME280;6669;42.678;23.332;2023-02-16T08:53:19;95781.56;;;2.57;100.00
13209;BME280;6669;42.678;23.332;2023-02-16T08:55:52;95776.38;;;2.72;100.00
13209;BME280;6669;42.678;23.332;2023-02-16T08:58:21;95779.94;;;2.84;100.00
13209;BME280;6669;42.678;23.332;2023-02-16T09:00:49;95780.19;;;2.93;100.00
13209;BME280;6669;42.678;23.332;2023-02-16T09:03:19;95771.19;;;3.01;100.00
13209;BME280;6669;42.678;23.332;2023-02-16T09:05:48;95772.41;;;3.08;100.00
13209;BME280;6669;42.678;23.332;2023-02-16T09:08:16;95772.97;;;3.13;100.00
13209;BME280;6669;42.678;23.332;2023-02-16T09:10:44;95768.69;;;3.26;100.00
13209;BME280;6669;42.678;23.332;2023-02-16T09:13:12;95773.63;;;3.30;100.00
13209;BME280;6669;42.678;23.332;2023-02-16T09:15:42;95759.47;;;3.37;100.00
13209;BME280;6669;42.678;23.332;2023-02-16T09:18:11;95771.03;;;3.57;100.00
13209;BME280;6669;42.678;23.332;2023-02-16T09:20:42;95761.38;;;3.60;100.00
13209;BME280;6669;42.678;23.332;2023-02-16T09:23:12;95764.25;;;3.69;100.00
13209;BME280;6669;42.678;23.332;2023-02-16T09:25:40;95758.00;;;3.86;100.00
13209;BME280;6669;42.678;23.332;2023-02-16T09:28:09;95751.59;;;3.91;100.00
13209;BME280;6669;42.678;23.332;2023-02-16T09:30:37;95762.91;;;4.15;100.00
13209;BME280;6669;42.678;23.332;2023-02-16T09:33:05;95764.66;;;4.27;100.00
13209;BME280;6669;42.678;23.332;2023-02-16T09:35:33;95745.69;;;4.41;100.00
13209;BME280;6669;42.678;23.332;2023-02-16T09:38:03;95752.72;;;4.63;100.00
13209;BME280;6669;42.678;23.332;2023-02-16T09:40:33;95748.75;;;4.83;100.00
13209;BME280;6669;42.678;23.332;2023-02-16T09:43:06;95748.16;;;5.04;100.00
13209;BME280;6669;42.678;23.332;2023-02-16T09:45:40;95743.59;;;5.32;100.00
13209;BME280;6669;42.678;23.332;2023-02-16T09:48:20;95738.81;;;5.74;100.00
13209;BME280;6669;42.678;23.332;2023-02-16T09:50:51;95740.03;;;6.27;100.00
13209;BME280;6669;42.678;23.332;2023-02-16T09:53:35;95731.34;;;7.06;100.00
13209;BME280;6669;42.678;23.332;2023-02-16T09:56:13;95732.78;;;7.73;100.00
13209;BME280;6669;42.678;23.332;2023-02-16T09:58:47;95731.44;;;8.31;100.00
13209;BME280;6669;42.678;23.332;2023-02-16T10:01:24;95723.88;;;8.90;100.00
13209;BME280;6669;42.678;23.332;2023-02-16T10:04:10;95721.28;;;9.29;100.00
13209;BME280;6669;42.678;23.332;2023-02-16T10:06:52;95717.44;;;8.43;95.57
13209;BME280;6669;42.678;23.332;2023-02-16T10:09:26;95719.28;;;9.23;94.51
13209;BME280;6669;42.678;23.332;2023-02-16T10:12:00;95719.63;;;9.67;90.65
13209;BME280;6669;42.678;23.332;2023-02-16T10:14:32;95709.31;;;9.95;85.53
13209;BME280;6669;42.678;23.332;2023-02-16T10:17:11;95699.06;;;10.03;83.92
13209;BME280;6669;42.678;23.332;2023-02-16T10:19:45;95704.09;;;10.05;83.19
13209;BME280;6669;42.678;23.332;2023-02-16T10:22:18;95688.97;;;10.28;81.96
13209;BME280;6669;42.678;23.332;2023-02-16T10:24:56;95690.34;;;10.60;77.88
13209;BME280;6669;42.678;23.332;2023-02-16T10:27:31;95691.00;;;10.90;78.72
13209;BME280;6669;42.678;23.332;2023-02-16T10:30:01;95686.97;;;10.95;75.39
13209;BME280;6669;42.678;23.332;2023-02-16T10:32:32;95683.56;;;10.95;75.45
13209;BME280;6669;42.678;23.332;2023-02-16T10:35:13;95683.88;;;11.10;75.68
13209;BME280;6669;42.678;23.332;2023-02-16T10:38:02;95669.78;;;11.57;73.90
13209;BME280;6669;42.678;23.332;2023-02-16T10:40:44;95675.91;;;11.74;71.56
13209;BME280;6669;42.678;23.332;2023-02-16T10:43:17;95678.25;;;11.85;70.80
13209;BME280;6669;42.678;23.332;2023-02-16T10:45:49;95677.06;;;11.80;70.36
13209;BME280;6669;42.678;23.332;2023-02-16T10:48:19;95670.59;;;12.10;69.34
13209;BME280;6669;42.678;23.332;2023-02-16T10:50:54;95669.94;;;11.90;68.31
13209;BME280;6669;42.678;23.332;2023-02-16T10:53:34;95670.72;;;11.82;68.47
13209;BME280;6669;42.678;23.332;2023-02-16T10:56:22;95659.16;;;12.03;69.06
13209;BME280;6669;42.678;23.332;2023-02-16T10:58:55;95659.03;;;12.13;67.82
13209;BME280;6669;42.678;23.332;2023-02-16T11:01:31;95647.81;;;12.20;66.58
13209;BME280;6669;42.678;23.332;2023-02-16T11:04:02;95657.69;;;12.35;66.20
13209;BME280;6669;42.678;23.332;2023-02-16T11:06:30;95650.03;;;12.50;66.28
13209;BME280;6669;42.678;23.332;2023-02-16T11:09:02;95636.91;;;12.76;65.82
13209;BME280;6669;42.678;23.332;2023-02-16T11:11:36;95634.16;;;12.86;65.03
13209;BME280;6669;42.678;23.332;2023-02-16T11:14:10;95629.66;;;13.46;64.07
13209;BME280;6669;42.678;23.332;2023-02-16T11:16:45;95630.28;;;13.48;62.64
13209;BME280;6669;42.678;23.332;2023-02-16T11:19:19;95632.25;;;13.46;62.16
13209;BME280;6669;42.678;23.332;2023-02-16T11:21:50;95634.00;;;13.62;62.66
13209;BME280;6669;42.678;23.332;2023-02-16T11:24:24;95628.72;;;14.03;60.96
13209;BME280;6669;42.678;23.332;2023-02-16T11:27:01;95617.09;;;14.05;60.88
13209;BME280;6669;42.678;23.332;2023-02-16T11:29:29;95617.34;;;14.27;60.14
13209;BME280;6669;42.678;23.332;2023-02-16T11:31:58;95611.97;;;14.20;59.63
13209;BME280;6669;42.678;23.332;2023-02-16T11:34:33;95601.03;;;13.77;60.78
13209;BME280;6669;42.678;23.332;2023-02-16T11:37:05;95610.28;;;13.88;61.32
13209;BME280;6669;42.678;23.332;2023-02-16T11:39:36;95603.53;;;14.10;59.82
13209;BME280;6669;42.678;23.332;2023-02-16T11:42:17;95605.59;;;14.23;59.20
13209;BME280;6669;42.678;23.332;2023-02-16T11:44:50;95606.28;;;14.17;58.58
13209;BME280;6669;42.678;23.332;2023-02-16T11:47:23;95592.53;;;14.23;58.75
13209;BME280;6669;42.678;23.332;2023-02-16T11:50:12;95590.94;;;14.77;58.46
13209;BME280;6669;42.678;23.332;2023-02-16T11:52:44;95598.75;;;15.23;57.10
13209;BME280;6669;42.678;23.332;2023-02-16T11:55:20;95593.44;;;14.93;56.55
13209;BME280;6669;42.678;23.332;2023-02-16T11:57:51;95574.31;;;14.61;56.68
13209;BME280;6669;42.678;23.332;2023-02-16T12:00:23;95572.84;;;15.28;56.17
13209;BME280;6669;42.678;23.332;2023-02-16T12:03:11;95582.84;;;15.48;55.53
13209;BME280;6669;42.678;23.332;2023-02-16T12:05:53;95570.56;;;15.78;55.43
13209;BME280;6669;42.678;23.332;2023-02-16T12:08:32;95578.53;;;16.00;54.77
13209;BME280;6669;42.678;23.332;2023-02-16T12:11:17;95573.81;;;15.65;54.19
13209;BME280;6669;42.678;23.332;2023-02-16T12:14:02;95574.31;;;15.46;53.94
13209;BME280;6669;42.678;23.332;2023-02-16T12:16:41;95565.22;;;15.57;54.64
13209;BME280;6669;42.678;23.332;2023-02-16T12:19:23;95560.25;;;15.47;54.59
13209;BME280;6669;42.678;23.332;2023-02-16T12:22:01;95564.13;;;15.51;54.29
13209;BME280;6669;42.678;23.332;2023-02-16T12:24:42;95551.75;;;15.75;53.78
13209;BME280;6669;42.678;23.332;2023-02-16T12:27:17;95536.78;;;15.83;53.59
13209;BME280;6669;42.678;23.332;2023-02-16T12:29:54;95551.03;;;16.11;52.73
13209;BME280;6669;42.678;23.332;2023-02-16T12:32:38;95541.78;;;16.15;52.89
13209;BME280;6669;42.678;23.332;2023-02-16T12:35:21;95540.69;;;16.24;53.50
13209;BME280;6669;42.678;23.332;2023-02-16T12:38:01;95537.19;;;16.75;52.46
13209;BME280;6669;42.678;23.332;2023-02-16T12:40:43;95538.47;;;16.43;52.57
13209;BME280;6669;42.678;23.332;2023-02-16T12:43:28;95515.69;;;16.65;52.15
13209;BME280;6669;42.678;23.332;2023-02-16T12:46:03;95527.59;;;16.89;51.53
13209;BME280;6669;42.678;23.332;2023-02-16T12:48:38;95530.00;;;17.06;51.23
13209;BME280;6669;42.678;23.332;2023-02-16T12:51:13;95518.41;;;17.00;51.04
13209;BME280;6669;42.678;23.332;2023-02-16T12:53:45;95523.13;;;16.61;51.53
13209;BME280;6669;42.678;23.332;2023-02-16T12:56:20;95502.34;;;17.10;51.00
13209;BME280;6669;42.678;23.332;2023-02-16T12:58:55;95514.00;;;17.01;51.54
13209;BME280;6669;42.678;23.332;2023-02-16T13:01:32;95503.50;;;17.01;50.99
13209;BME280;6669;42.678;23.332;2023-02-16T13:04:06;95495.66;;;16.86;50.92
13209;BME280;6669;42.678;23.332;2023-02-16T13:06:45;95497.38;;;16.93;51.25
13209;BME280;6669;42.678;23.332;2023-02-16T13:09:24;95501.63;;;16.73;50.98
13209;BME280;6669;42.678;23.332;2023-02-16T13:12:04;95502.16;;;17.11;50.28
13209;BME280;6669;42.678;23.332;2023-02-16T13:14:37;95494.53;;;17.52;50.11
13209;BME280;6669;42.678;23.332;2023-02-16T13:17:14;95487.38;;;17.39;49.75
13209;BME280;6669;42.678;23.332;2023-02-16T13:19:43;95484.44;;;17.55;49.56
13209;BME280;6669;42.678;23.332;2023-02-16T13:22:45;95490.59;;;17.69;49.24
13209;BME280;6669;42.678;23.332;2023-02-16T13:25:36;95493.25;;;17.83;49.06
13209;BME280;6669;42.678;23.332;2023-02-16T13:28:26;95482.63;;;17.97;48.44